createdAt,value
2022-08-23T00:01:21.143Z,21.23
2022-08-23T00:03:50.632Z,15.93
2022-08-23T00:06:19.110Z,15.53
2022-08-23T00:08:49.028Z,17.30
2022-08-23T00:11:30.749Z,18.20
2022-08-23T00:14:01.257Z,17.80
2022-08-23T00:16:30.208Z,18.07
2022-08-23T00:18:58.439Z,13.13
2022-08-23T00:21:26.648Z,10.60
2022-08-23T00:23:56.331Z,14.77
2022-08-23T00:26:25.162Z,36.20
2022-08-23T00:28:53.613Z,15.00
2022-08-23T00:31:21.847Z,16.90
2022-08-23T00:33:50.088Z,11.00
2022-08-23T00:36:18.226Z,20.03
2022-08-23T00:38:46.369Z,20.03
2022-08-23T00:41:16.077Z,22.70
2022-08-23T00:44:01.496Z,12.60
2022-08-23T00:47:01.267Z,21.13
2022-08-23T00:49:31.078Z,20.83
2022-08-23T00:52:03.788Z,12.20
2022-08-23T00:54:33.244Z,31.37
2022-08-23T00:57:06.799Z,25.73
2022-08-23T00:59:35.172Z,18.70
2022-08-23T01:02:04.354Z,19.30
2022-08-23T01:04:38.043Z,17.53
2022-08-23T01:07:13.025Z,17.40
2022-08-23T01:09:43.832Z,12.50
2022-08-23T01:12:29.580Z,19.90
2022-08-23T01:15:04.624Z,18.17
2022-08-23T01:17:39.653Z,16.73
2022-08-23T01:20:12.216Z,23.00
2022-08-23T01:22:49.823Z,16.40
2022-08-23T01:25:23.762Z,13.90
2022-08-23T01:27:52.125Z,16.00
2022-08-23T01:30:23.985Z,19.43
2022-08-23T01:32:54.121Z,19.97
2022-08-23T01:35:31.152Z,26.67
2022-08-23T01:37:59.498Z,26.33
2022-08-23T01:40:29.992Z,25.30
2022-08-23T01:42:58.232Z,19.50
2022-08-23T01:45:26.411Z,21.93
2022-08-23T01:47:54.757Z,23.33
2022-08-23T01:50:23.526Z,21.37
2022-08-23T01:52:51.747Z,18.33
2022-08-23T01:55:21.039Z,21.73
2022-08-23T01:57:54.172Z,20.70
2022-08-23T02:00:25.051Z,18.70
2022-08-23T02:02:53.357Z,14.47
2022-08-23T02:05:21.696Z,17.00
2022-08-23T02:07:50.690Z,28.80
2022-08-23T02:10:19.668Z,16.93
2022-08-23T02:12:48.872Z,17.90
2022-08-23T02:15:18.942Z,15.27
2022-08-23T02:17:47.055Z,22.23
2022-08-23T02:20:15.575Z,19.70
2022-08-23T02:22:43.970Z,15.93
2022-08-23T02:25:12.147Z,14.80
2022-08-23T02:27:44.015Z,20.93
2022-08-23T02:30:13.647Z,22.37
2022-08-23T02:32:43.724Z,21.60
2022-08-23T02:35:12.161Z,16.97
2022-08-23T02:37:40.295Z,19.67
2022-08-23T02:40:09.697Z,21.30
2022-08-23T02:42:38.134Z,20.50
2022-08-23T02:45:08.700Z,13.97
2022-08-23T02:47:37.591Z,15.10
2022-08-23T02:50:08.907Z,23.33
2022-08-23T02:52:37.431Z,20.37
2022-08-23T02:55:06.366Z,18.50
2022-08-23T02:57:35.727Z,18.33
2022-08-23T03:00:05.380Z,22.73
2022-08-23T03:02:33.605Z,18.27
2022-08-23T03:05:02.015Z,29.40
2022-08-23T03:07:32.778Z,25.00
2022-08-23T03:10:03.279Z,26.10
2022-08-23T03:12:31.550Z,21.40
2022-08-23T03:14:59.748Z,28.27
2022-08-23T03:17:28.327Z,28.60
2022-08-23T03:19:56.486Z,30.80
2022-08-23T03:22:24.781Z,23.33
2022-08-23T03:24:54.375Z,24.33
2022-08-23T03:27:22.764Z,27.37
2022-08-23T03:29:51.146Z,28.10
2022-08-23T03:32:19.451Z,22.00
2022-08-23T03:34:48.545Z,29.33
2022-08-23T03:37:16.854Z,22.70
2022-08-23T03:39:45.035Z,25.30
2022-08-23T03:42:14.782Z,25.53
2022-08-23T03:44:42.997Z,21.30
2022-08-23T03:47:11.225Z,18.73
2022-08-23T03:49:39.412Z,17.77
2022-08-23T03:52:08.558Z,21.63
2022-08-23T03:54:36.975Z,21.00
2022-08-23T03:57:09.530Z,19.10
2022-08-23T03:59:42.750Z,19.97
2022-08-23T04:02:12.254Z,14.80
2022-08-23T04:04:40.520Z,21.27
2022-08-23T04:07:08.755Z,28.23
2022-08-23T04:09:36.990Z,21.73
2022-08-23T04:12:17.636Z,13.43
2022-08-23T04:14:47.778Z,13.37
2022-08-23T04:17:16.676Z,13.33
2022-08-23T04:19:44.912Z,15.77
2022-08-23T04:22:14.114Z,13.83
2022-08-23T04:24:43.117Z,16.43
2022-08-23T04:27:11.763Z,13.43
2022-08-23T04:29:40.417Z,18.03
2022-08-23T04:32:14.896Z,14.70
2022-08-23T04:34:55.169Z,13.70
2022-08-23T04:37:23.370Z,18.63
2022-08-23T04:40:09.021Z,13.67
2022-08-23T04:42:37.268Z,21.53
2022-08-23T04:45:05.815Z,12.73
2022-08-23T04:47:39.246Z,16.87
2022-08-23T04:50:08.724Z,17.87
2022-08-23T04:52:36.943Z,12.60
2022-08-23T04:55:05.985Z,9.93
2022-08-23T04:57:34.155Z,18.10
2022-08-23T05:00:02.547Z,12.20
2022-08-23T05:02:30.968Z,15.10
2022-08-23T05:05:00.575Z,23.63
2022-08-23T05:07:41.672Z,14.70
2022-08-23T05:10:13.901Z,15.67
2022-08-23T05:12:42.620Z,18.87
2022-08-23T05:15:12.112Z,12.70
2022-08-23T05:17:40.755Z,19.60
2022-08-23T05:20:11.879Z,15.63
2022-08-23T05:22:41.937Z,10.93
2022-08-23T05:25:10.586Z,25.60
2022-08-23T05:27:39.156Z,26.83
2022-08-23T05:30:08.843Z,18.90
2022-08-23T05:32:43.835Z,23.93
2022-08-23T05:35:13.365Z,18.87
2022-08-23T05:37:41.694Z,20.37
2022-08-23T05:40:11.151Z,15.33
2022-08-23T05:42:39.517Z,21.63
2022-08-23T05:45:09.772Z,22.60
2022-08-23T05:47:38.008Z,21.00
2022-08-23T05:50:07.001Z,21.87
2022-08-23T05:52:36.946Z,25.43
2022-08-23T05:55:06.063Z,18.33
2022-08-23T05:57:35.818Z,32.10
2022-08-23T06:00:05.668Z,28.83
2022-08-23T06:02:33.834Z,18.40
2022-08-23T06:05:02.030Z,14.73
2022-08-23T06:07:31.370Z,17.00
2022-08-23T06:10:01.103Z,19.00
2022-08-23T06:12:29.263Z,20.87
2022-08-23T06:14:57.883Z,23.27
2022-08-23T06:17:27.316Z,23.17
2022-08-23T06:19:55.992Z,16.70
2022-08-23T06:22:24.284Z,20.07
2022-08-23T06:24:52.478Z,18.50
2022-08-23T06:27:22.100Z,19.40
2022-08-23T06:29:52.078Z,33.80
2022-08-23T06:32:20.304Z,27.50
2022-08-23T06:34:48.446Z,24.20
2022-08-23T06:37:17.014Z,30.50
2022-08-23T06:39:46.076Z,21.33
2022-08-23T06:42:50.240Z,19.37
2022-08-23T06:45:06.731Z,21.43
2022-08-23T06:47:34.951Z,16.60
2022-08-23T06:50:03.196Z,21.87
2022-08-23T06:52:31.327Z,23.80
2022-08-23T06:55:00.153Z,23.47
2022-08-23T06:57:32.525Z,16.80
2022-08-23T07:00:00.886Z,32.77
2022-08-23T07:02:30.593Z,34.53
2022-08-23T07:04:59.135Z,18.23
2022-08-23T07:07:39.720Z,29.60
2022-08-23T07:10:13.095Z,27.27
2022-08-23T07:12:43.310Z,20.33
2022-08-23T07:15:12.939Z,28.27
2022-08-23T07:17:42.501Z,23.50
2022-08-23T07:20:11.086Z,17.43
2022-08-23T07:22:40.033Z,22.70
2022-08-23T07:25:08.647Z,28.97
2022-08-23T07:27:36.878Z,21.07
2022-08-23T07:30:07.115Z,31.57
2022-08-23T07:32:35.617Z,26.37
2022-08-23T07:35:07.109Z,19.10
2022-08-23T07:37:35.279Z,27.47
2022-08-23T07:40:03.444Z,24.83
2022-08-23T07:42:31.651Z,24.83
2022-08-23T07:44:59.891Z,30.30
2022-08-23T07:47:29.737Z,34.13
2022-08-23T07:49:57.862Z,23.27
2022-08-23T07:52:27.425Z,31.57
2022-08-23T07:54:55.600Z,28.30
2022-08-23T07:57:23.869Z,31.07
2022-08-23T07:59:52.076Z,29.47
2022-08-23T08:02:20.269Z,29.27
2022-08-23T08:04:48.394Z,17.90
2022-08-23T08:07:20.665Z,31.90
2022-08-23T08:09:50.810Z,30.03
2022-08-23T08:12:19.113Z,21.60
2022-08-23T08:14:48.874Z,33.87
2022-08-23T08:17:18.154Z,24.30
2022-08-23T08:19:46.945Z,20.33
2022-08-23T08:22:15.204Z,24.57
2022-08-23T08:24:43.645Z,23.27
2022-08-23T08:27:13.191Z,34.50
2022-08-23T08:29:42.120Z,20.60
2022-08-23T08:32:13.694Z,23.37
2022-08-23T08:34:42.492Z,20.07
2022-08-23T08:37:10.917Z,36.77
2022-08-23T08:39:45.860Z,21.20
2022-08-23T08:42:32.760Z,23.20
2022-08-23T08:45:04.809Z,22.27
2022-08-23T08:47:42.234Z,31.67
2022-08-23T08:50:19.228Z,20.10
2022-08-23T08:52:51.552Z,27.63
2022-08-23T08:55:25.401Z,21.20
2022-08-23T08:57:56.672Z,24.93
2022-08-23T09:00:27.346Z,15.07
2022-08-23T09:02:57.487Z,27.60
2022-08-23T09:05:31.710Z,22.80
2022-08-23T09:08:15.762Z,34.37
2022-08-23T09:10:58.947Z,16.67
2022-08-23T09:13:56.650Z,29.30
2022-08-23T09:16:38.120Z,24.77
2022-08-23T09:19:07.153Z,18.70
2022-08-23T09:21:46.840Z,14.93
2022-08-23T09:24:15.868Z,27.83
2022-08-23T09:26:45.571Z,21.33
2022-08-23T09:29:22.060Z,23.70
2022-08-23T09:31:54.208Z,21.23
2022-08-23T09:34:38.730Z,20.33
2022-08-23T09:37:18.698Z,28.67
2022-08-23T09:39:50.846Z,22.90
2022-08-23T09:42:39.685Z,31.30
2022-08-23T09:45:26.597Z,18.87
2022-08-23T09:47:56.266Z,21.13
2022-08-23T09:50:29.219Z,16.43
2022-08-23T09:53:01.075Z,25.17
2022-08-23T09:55:36.412Z,21.80
2022-08-23T09:58:08.368Z,30.47
2022-08-23T10:00:38.336Z,28.37
2022-08-23T10:03:28.989Z,29.77
2022-08-23T10:05:59.358Z,23.60
2022-08-23T10:08:33.057Z,16.87
2022-08-23T10:11:09.392Z,20.37
2022-08-23T10:13:38.316Z,24.33
2022-08-23T10:16:13.692Z,20.57
2022-08-23T10:18:52.815Z,21.83
2022-08-23T10:21:26.484Z,25.10
2022-08-23T10:24:21.260Z,16.77
2022-08-23T10:27:30.812Z,15.70
2022-08-23T10:30:06.130Z,13.00
2022-08-23T10:32:47.453Z,22.63
2022-08-23T10:35:38.626Z,18.93
2022-08-23T10:38:42.342Z,17.90
2022-08-23T10:41:27.481Z,34.70
2022-08-23T10:44:05.346Z,20.03
2022-08-23T10:46:53.657Z,28.17
2022-08-23T10:49:23.422Z,14.73
2022-08-23T10:51:54.748Z,17.17
2022-08-23T10:54:35.987Z,17.83
2022-08-23T10:57:07.913Z,19.47
2022-08-23T10:59:37.693Z,12.03
2022-08-23T11:02:20.821Z,13.97
2022-08-23T11:04:55.000Z,15.40
2022-08-23T11:07:30.365Z,25.23
2022-08-23T11:10:16.728Z,21.90
2022-08-23T11:12:56.235Z,25.20
2022-08-23T11:15:33.618Z,19.53
2022-08-23T11:18:04.976Z,15.40
2022-08-23T11:21:03.211Z,12.43
2022-08-23T11:24:18.506Z,22.50
2022-08-23T11:27:09.011Z,19.67
2022-08-23T11:29:41.620Z,17.30
2022-08-23T11:32:33.311Z,26.13
2022-08-23T11:35:10.748Z,20.50
2022-08-23T11:37:57.263Z,24.13
2022-08-23T11:40:58.575Z,17.03
2022-08-23T11:43:37.757Z,12.93
2022-08-23T11:46:32.284Z,22.53
2022-08-23T11:49:25.018Z,22.47
2022-08-23T11:52:03.421Z,28.17
2022-08-23T11:54:48.455Z,18.60
2022-08-23T11:57:26.306Z,25.27
2022-08-23T12:00:08.600Z,20.87
2022-08-23T12:02:48.950Z,15.20
2022-08-23T12:05:33.612Z,16.93
2022-08-23T12:08:46.992Z,16.90
2022-08-23T12:11:17.101Z,20.17
2022-08-23T12:13:58.996Z,19.63
2022-08-23T12:16:32.489Z,18.53
2022-08-23T12:19:04.332Z,19.40
2022-08-23T12:21:41.225Z,16.80
2022-08-23T12:24:17.539Z,18.43
2022-08-23T12:27:05.075Z,33.50
2022-08-23T12:29:48.482Z,15.20
2022-08-23T12:32:30.412Z,18.57
2022-08-23T12:35:08.027Z,22.40
2022-08-23T12:37:46.331Z,25.97
2022-08-23T12:40:23.572Z,28.10
2022-08-23T12:42:52.449Z,19.50
2022-08-23T12:45:23.853Z,15.83
2022-08-23T12:48:00.034Z,28.10
2022-08-23T12:50:33.394Z,25.43
2022-08-23T12:53:56.469Z,23.77
2022-08-23T12:56:31.659Z,17.70
2022-08-23T12:59:05.012Z,27.70
2022-08-23T13:01:37.267Z,22.47
2022-08-23T13:04:12.079Z,16.97
2022-08-23T13:06:45.313Z,39.80
2022-08-23T13:09:20.805Z,26.17
2022-08-23T13:11:49.214Z,21.10
2022-08-23T13:14:25.029Z,19.33
2022-08-23T13:16:54.074Z,24.70
2022-08-23T13:19:31.016Z,19.07
2022-08-23T13:22:20.420Z,33.33
2022-08-23T13:25:27.532Z,24.70
2022-08-23T13:27:54.967Z,26.03
2022-08-23T13:30:27.039Z,22.33
2022-08-23T13:33:22.328Z,33.80
2022-08-23T13:35:54.582Z,29.67
2022-08-23T13:38:26.921Z,24.80
2022-08-23T13:40:59.156Z,25.80
2022-08-23T13:43:32.991Z,28.37
2022-08-23T13:46:11.790Z,27.63
2022-08-23T13:48:47.346Z,26.07
2022-08-23T13:51:25.009Z,21.13
2022-08-23T13:53:53.533Z,43.57
2022-08-23T13:56:22.685Z,43.23
2022-08-23T13:58:56.806Z,28.90
2022-08-23T14:01:25.260Z,41.37
2022-08-23T14:03:53.904Z,34.87
2022-08-23T14:06:24.031Z,22.60
2022-08-23T14:08:52.277Z,62.60
2022-08-23T14:11:20.623Z,33.67
2022-08-23T14:13:50.479Z,47.97
2022-08-23T14:16:39.121Z,41.97
2022-08-23T14:19:54.066Z,60.23
2022-08-23T14:21:59.608Z,37.70
2022-08-23T14:24:28.357Z,50.67
2022-08-23T14:26:57.200Z,43.03
2022-08-23T14:29:28.384Z,38.40
2022-08-23T14:31:56.752Z,55.23
2022-08-23T14:34:25.541Z,55.10
2022-08-23T14:39:44.124Z,49.93
2022-08-23T14:42:14.328Z,64.90
2022-08-23T14:44:42.772Z,57.67
2022-08-23T14:47:10.910Z,53.33
2022-08-23T14:49:39.033Z,50.30
2022-08-23T14:52:07.829Z,70.93
2022-08-23T14:54:35.982Z,59.40
2022-08-23T14:57:06.139Z,64.80
2022-08-23T14:59:34.382Z,72.20
2022-08-23T15:02:03.717Z,71.43
2022-08-23T15:04:34.563Z,95.17
2022-08-23T15:07:19.634Z,76.00
2022-08-23T15:09:48.985Z,63.00
2022-08-23T15:15:12.338Z,74.77
2022-08-23T15:17:48.099Z,70.20
2022-08-23T15:20:16.627Z,67.93
2022-08-23T15:22:45.225Z,105.60
2022-08-23T15:25:23.609Z,69.13
2022-08-23T15:27:53.779Z,78.83
2022-08-23T15:30:23.656Z,76.67
2022-08-23T15:32:56.256Z,96.90
2022-08-23T15:35:26.073Z,110.70
2022-08-23T15:37:56.238Z,72.07
2022-08-23T15:40:25.961Z,75.37
2022-08-23T15:42:56.102Z,95.27
2022-08-23T15:45:24.566Z,89.37
2022-08-23T15:47:55.175Z,72.13
2022-08-23T15:50:26.775Z,84.97
2022-08-23T15:52:56.562Z,73.20
2022-08-23T15:55:26.099Z,72.87
2022-08-23T15:57:58.414Z,78.00
2022-08-23T16:00:28.660Z,89.80
2022-08-23T16:03:20.614Z,59.67
2022-08-23T16:05:47.707Z,82.63
2022-08-23T16:08:21.286Z,64.13
2022-08-23T16:10:49.719Z,71.43
2022-08-23T16:13:19.402Z,77.43
2022-08-23T16:15:47.675Z,80.37
2022-08-23T16:18:16.210Z,63.17
2022-08-23T16:20:44.999Z,59.53
2022-08-23T16:23:13.488Z,63.00
2022-08-23T16:25:42.108Z,56.97
2022-08-23T16:28:10.394Z,52.67
2022-08-23T16:30:39.986Z,72.97
2022-08-23T16:33:08.106Z,76.13
2022-08-23T16:35:36.611Z,53.60
2022-08-23T16:38:05.307Z,63.83
2022-08-23T16:40:33.385Z,44.87
2022-08-23T16:43:01.835Z,46.57
2022-08-23T16:45:30.049Z,55.67
2022-08-23T16:48:00.804Z,51.77
2022-08-23T16:50:29.242Z,57.93
2022-08-23T16:52:57.586Z,62.20
2022-08-23T16:55:25.738Z,36.80
2022-08-23T16:57:54.024Z,47.13
2022-08-23T17:00:23.061Z,38.73
2022-08-23T17:02:51.198Z,51.57
2022-08-23T17:05:21.040Z,51.27
2022-08-23T17:07:49.341Z,43.73
2022-08-23T17:10:19.660Z,58.33
2022-08-23T17:12:51.295Z,47.80
2022-08-23T17:15:23.496Z,49.17
2022-08-23T17:17:51.919Z,55.93
2022-08-23T17:20:23.972Z,39.13
2022-08-23T17:22:53.732Z,52.43
2022-08-23T17:25:21.915Z,49.90
2022-08-23T17:27:53.307Z,38.93
2022-08-23T17:30:25.270Z,44.33
2022-08-23T17:32:53.504Z,56.93
2022-08-23T17:35:26.996Z,45.43
2022-08-23T17:37:56.155Z,52.03
2022-08-23T17:40:30.005Z,45.50
2022-08-23T17:43:00.509Z,52.60
2022-08-23T17:45:30.256Z,45.87
2022-08-23T17:47:58.712Z,48.73
2022-08-23T17:50:28.508Z,48.80
2022-08-23T17:52:56.713Z,53.63
2022-08-23T17:55:24.949Z,54.90
2022-08-23T17:57:57.677Z,46.70
2022-08-23T18:00:32.538Z,46.53
2022-08-23T18:03:00.950Z,56.43
2022-08-23T18:05:33.323Z,80.43
2022-08-23T18:08:01.788Z,61.53
2022-08-23T18:10:31.096Z,45.10
2022-08-23T18:12:59.322Z,21.70
2022-08-23T18:15:31.232Z,40.20
2022-08-23T18:18:00.732Z,38.37
2022-08-23T18:20:31.333Z,51.97
2022-08-23T18:23:00.533Z,48.30
2022-08-23T18:25:29.327Z,55.50
2022-08-23T18:28:09.940Z,38.13
2022-08-23T18:30:41.494Z,32.57
2022-08-23T18:33:12.608Z,54.43
2022-08-23T18:35:43.600Z,34.20
2022-08-23T18:38:13.735Z,30.70
2022-08-23T18:40:46.440Z,38.03
2022-08-23T18:43:16.999Z,39.03
2022-08-23T18:45:45.626Z,40.63
2022-08-23T18:48:13.896Z,39.33
2022-08-23T18:50:44.157Z,42.37
2022-08-23T18:53:13.725Z,29.73
2022-08-23T18:55:42.415Z,49.10
2022-08-23T18:58:11.028Z,36.90
2022-08-23T19:00:40.375Z,39.60
2022-08-23T19:03:09.510Z,34.33
2022-08-23T19:05:42.139Z,50.63
2022-08-23T19:08:15.424Z,35.10
2022-08-23T19:10:44.768Z,48.90
2022-08-23T19:13:13.363Z,41.57
2022-08-23T19:15:42.380Z,38.73
2022-08-23T19:18:11.382Z,46.40
2022-08-23T19:20:39.924Z,37.93
2022-08-23T19:23:08.088Z,42.73
2022-08-23T19:25:38.693Z,43.23
2022-08-23T19:28:07.274Z,46.00
2022-08-23T19:30:35.752Z,46.40
2022-08-23T19:33:04.237Z,39.13
2022-08-23T19:35:32.754Z,67.97
2022-08-23T19:38:01.149Z,37.97
2022-08-23T19:40:29.373Z,44.00
2022-08-23T19:43:00.540Z,38.90
2022-08-23T19:45:32.022Z,30.80
2022-08-23T19:48:00.871Z,48.77
2022-08-23T19:50:29.511Z,63.43
2022-08-23T19:52:58.048Z,58.40
2022-08-23T19:55:27.440Z,34.63
2022-08-23T19:57:56.426Z,33.60
2022-08-23T20:00:27.856Z,40.40
2022-08-23T20:02:56.235Z,31.57
2022-08-23T20:05:24.447Z,44.37
2022-08-23T20:07:52.692Z,35.53
2022-08-23T20:10:21.331Z,32.10
2022-08-23T20:12:49.470Z,46.50
2022-08-23T20:15:17.649Z,36.23
2022-08-23T20:17:47.286Z,39.10
2022-08-23T20:20:15.427Z,38.43
2022-08-23T20:23:01.298Z,42.40
2022-08-23T20:25:30.778Z,47.70
2022-08-23T20:27:59.501Z,46.73
2022-08-23T20:30:27.748Z,43.73
2022-08-23T20:32:57.346Z,41.43
2022-08-23T20:35:25.733Z,46.27
2022-08-23T20:37:53.990Z,56.40
2022-08-23T20:40:23.596Z,49.17
2022-08-23T20:42:52.553Z,39.13
2022-08-23T20:45:21.103Z,46.13
2022-08-23T20:47:49.356Z,43.73
2022-08-23T20:50:19.415Z,49.77
2022-08-23T20:52:47.877Z,37.53
2022-08-23T20:55:16.338Z,48.23
2022-08-23T20:57:44.646Z,44.17
2022-08-23T21:00:13.991Z,52.70
2022-08-23T21:02:42.187Z,37.57
2022-08-23T21:05:10.637Z,47.13
2022-08-23T21:07:40.150Z,51.07
2022-08-23T21:10:10.617Z,55.40
2022-08-23T21:12:38.823Z,47.37
2022-08-23T21:15:10.911Z,50.73
2022-08-23T21:17:39.378Z,54.57
2022-08-23T21:20:08.542Z,47.80
2022-08-23T21:22:36.804Z,49.47
2022-08-23T21:25:07.249Z,63.93
2022-08-23T21:27:35.939Z,54.37
2022-08-23T21:30:05.404Z,49.50
2022-08-23T21:32:33.974Z,68.53
2022-08-23T21:35:02.579Z,65.07
2022-08-23T21:37:31.238Z,58.80
2022-08-23T21:39:59.477Z,52.93
2022-08-23T21:42:30.684Z,40.50
2022-08-23T21:44:58.885Z,53.17
2022-08-23T21:47:27.221Z,73.13
2022-08-23T21:49:55.516Z,36.33
2022-08-23T21:52:23.691Z,42.10
2022-08-23T21:54:52.093Z,37.33
2022-08-23T21:57:20.771Z,43.10
2022-08-23T21:59:50.302Z,46.00
2022-08-23T22:02:19.389Z,56.30
2022-08-23T22:04:48.127Z,45.00
2022-08-23T22:07:17.540Z,63.03
2022-08-23T22:09:46.243Z,44.90
2022-08-23T22:12:15.134Z,41.20
2022-08-23T22:14:43.222Z,42.13
2022-08-23T22:17:15.107Z,49.77
2022-08-23T22:19:43.229Z,47.10
2022-08-23T22:22:11.729Z,38.67
2022-08-23T22:24:40.676Z,58.53
2022-08-23T22:27:09.217Z,58.83
2022-08-23T22:29:37.862Z,54.90
2022-08-23T22:32:06.552Z,52.43
2022-08-23T22:34:37.231Z,48.63
2022-08-23T22:37:05.655Z,51.23
2022-08-23T22:39:33.904Z,42.50
2022-08-23T22:42:02.016Z,47.80
2022-08-23T22:44:30.357Z,44.73
2022-08-23T22:46:59.025Z,45.37
2022-08-23T22:49:27.769Z,44.27
2022-08-23T22:52:00.720Z,35.23
2022-08-23T22:54:28.831Z,40.77
2022-08-23T22:56:56.982Z,42.17
2022-08-23T22:59:32.813Z,37.23
2022-08-23T23:02:03.495Z,49.77
2022-08-23T23:04:33.337Z,48.17
2022-08-23T23:07:03.489Z,35.20
2022-08-23T23:09:31.843Z,36.50
2022-08-23T23:12:00.000Z,34.47
2022-08-23T23:14:28.358Z,43.87
2022-08-23T23:16:56.744Z,43.00
2022-08-23T23:19:42.152Z,37.10
2022-08-23T23:22:15.192Z,36.97
2022-08-23T23:24:43.368Z,28.50
2022-08-23T23:27:11.677Z,48.77
2022-08-23T23:29:40.101Z,54.23
2022-08-23T23:32:08.544Z,44.73
2022-08-23T23:34:38.077Z,68.07
2022-08-23T23:37:06.786Z,30.57
2022-08-23T23:39:36.544Z,48.73
2022-08-23T23:42:05.483Z,35.13
2022-08-23T23:44:33.655Z,53.50
2022-08-23T23:47:03.164Z,44.23
2022-08-23T23:49:33.500Z,52.77
2022-08-23T23:52:03.725Z,49.87
2022-08-23T23:54:31.950Z,31.23
2022-08-23T23:57:01.533Z,50.47
2022-08-23T23:59:29.821Z,36.43
